sensor_id;sensor_type;location;lat;lon;timestamp;P1;durP1;ratioP1;P2;durP2;ratioP2
28529;SDS011;15737;49.760;6.632;2022-12-07T00:01:18;6.07;;;3.37;;
28529;SDS011;15737;49.760;6.632;2022-12-07T00:03:49;6.03;;;2.77;;
28529;SDS011;15737;49.760;6.632;2022-12-07T00:06:16;8.57;;;4.23;;
28529;SDS011;15737;49.760;6.632;2022-12-07T00:08:42;8.87;;;3.70;;
28529;SDS011;15737;49.760;6.632;2022-12-07T00:11:10;4.40;;;3.03;;
28529;SDS011;15737;49.760;6.632;2022-12-07T00:13:38;7.63;;;3.63;;
28529;SDS011;15737;49.760;6.632;2022-12-07T00:18:34;10.53;;;4.67;;
28529;SDS011;15737;49.760;6.632;2022-12-07T00:21:04;13.43;;;3.67;;
28529;SDS011;15737;49.760;6.632;2022-12-07T00:23:32;5.70;;;3.70;;
28529;SDS011;15737;49.760;6.632;2022-12-07T00:26:08;11.60;;;3.43;;
28529;SDS011;15737;49.760;6.632;2022-12-07T00:28:40;7.30;;;3.93;;
28529;SDS011;15737;49.760;6.632;2022-12-07T00:31:10;10.23;;;4.93;;
28529;SDS011;15737;49.760;6.632;2022-12-07T00:33:37;3.90;;;3.23;;
28529;SDS011;15737;49.760;6.632;2022-12-07T00:36:04;5.80;;;3.10;;
28529;SDS011;15737;49.760;6.632;2022-12-07T00:38:32;7.10;;;3.83;;
28529;SDS011;15737;49.760;6.632;2022-12-07T00:41:00;7.37;;;3.47;;
28529;SDS011;15737;49.760;6.632;2022-12-07T00:43:29;4.40;;;2.83;;
28529;SDS011;15737;49.760;6.632;2022-12-07T00:45:55;5.07;;;3.63;;
28529;SDS011;15737;49.760;6.632;2022-12-07T00:48:22;7.43;;;3.53;;
28529;SDS011;15737;49.760;6.632;2022-12-07T00:50:48;8.03;;;4.33;;
28529;SDS011;15737;49.760;6.632;2022-12-07T00:53:14;7.77;;;4.77;;
28529;SDS011;15737;49.760;6.632;2022-12-07T00:55:40;6.73;;;3.60;;
28529;SDS011;15737;49.760;6.632;2022-12-07T00:58:05;7.30;;;4.10;;
28529;SDS011;15737;49.760;6.632;2022-12-07T01:00:31;8.60;;;4.53;;
28529;SDS011;15737;49.760;6.632;2022-12-07T01:02:58;9.00;;;4.30;;
28529;SDS011;15737;49.760;6.632;2022-12-07T01:05:24;9.47;;;4.33;;
28529;SDS011;15737;49.760;6.632;2022-12-07T01:07:49;5.47;;;3.33;;
28529;SDS011;15737;49.760;6.632;2022-12-07T01:10:15;4.10;;;2.70;;
28529;SDS011;15737;49.760;6.632;2022-12-07T01:12:40;5.50;;;2.93;;
28529;SDS011;15737;49.760;6.632;2022-12-07T01:15:06;4.50;;;3.37;;
28529;SDS011;15737;49.760;6.632;2022-12-07T01:17:32;7.63;;;3.67;;
28529;SDS011;15737;49.760;6.632;2022-12-07T01:19:58;6.50;;;3.47;;
28529;SDS011;15737;49.760;6.632;2022-12-07T01:22:24;5.17;;;2.93;;
28529;SDS011;15737;49.760;6.632;2022-12-07T01:24:49;5.90;;;2.97;;
28529;SDS011;15737;49.760;6.632;2022-12-07T01:27:15;4.70;;;3.03;;
28529;SDS011;15737;49.760;6.632;2022-12-07T01:29:41;5.37;;;3.57;;
28529;SDS011;15737;49.760;6.632;2022-12-07T01:32:06;4.27;;;2.67;;
28529;SDS011;15737;49.760;6.632;2022-12-07T01:34:32;8.77;;;4.67;;
28529;SDS011;15737;49.760;6.632;2022-12-07T01:36:57;2.83;;;1.93;;
28529;SDS011;15737;49.760;6.632;2022-12-07T01:39:23;7.80;;;3.40;;
28529;SDS011;15737;49.760;6.632;2022-12-07T01:41:49;9.00;;;4.53;;
28529;SDS011;15737;49.760;6.632;2022-12-07T01:44:22;8.30;;;4.80;;
28529;SDS011;15737;49.760;6.632;2022-12-07T01:46:52;6.50;;;3.93;;
28529;SDS011;15737;49.760;6.632;2022-12-07T01:51:57;8.93;;;4.97;;
28529;SDS011;15737;49.760;6.632;2022-12-07T01:54:26;5.80;;;3.43;;
28529;SDS011;15737;49.760;6.632;2022-12-07T01:56:53;10.17;;;3.80;;
28529;SDS011;15737;49.760;6.632;2022-12-07T01:59:23;6.90;;;3.97;;
28529;SDS011;15737;49.760;6.632;2022-12-07T02:01:51;5.07;;;3.90;;
28529;SDS011;15737;49.760;6.632;2022-12-07T02:04:18;7.87;;;3.83;;
28529;SDS011;15737;49.760;6.632;2022-12-07T02:06:44;8.50;;;4.67;;
28529;SDS011;15737;49.760;6.632;2022-12-07T02:09:10;5.40;;;3.63;;
28529;SDS011;15737;49.760;6.632;2022-12-07T02:11:37;7.57;;;4.63;;
28529;SDS011;15737;49.760;6.632;2022-12-07T02:14:02;11.27;;;4.73;;
28529;SDS011;15737;49.760;6.632;2022-12-07T02:16:38;11.03;;;5.40;;
28529;SDS011;15737;49.760;6.632;2022-12-07T02:30:06;4.97;;;3.30;;
28529;SDS011;15737;49.760;6.632;2022-12-07T02:32:56;10.10;;;3.43;;
28529;SDS011;15737;49.760;6.632;2022-12-07T02:35:28;6.50;;;3.67;;
28529;SDS011;15737;49.760;6.632;2022-12-07T02:45:34;7.23;;;4.37;;
28529;SDS011;15737;49.760;6.632;2022-12-07T02:48:03;6.57;;;4.27;;
28529;SDS011;15737;49.760;6.632;2022-12-07T02:50:31;5.53;;;4.13;;
28529;SDS011;15737;49.760;6.632;2022-12-07T02:52:57;6.43;;;3.90;;
28529;SDS011;15737;49.760;6.632;2022-12-07T02:55:28;10.70;;;4.10;;
28529;SDS011;15737;49.760;6.632;2022-12-07T02:58:05;1.27;;;1.17;;
28529;SDS011;15737;49.760;6.632;2022-12-07T03:00:54;2.43;;;1.80;;
28529;SDS011;15737;49.760;6.632;2022-12-07T03:03:47;5.63;;;3.13;;
28529;SDS011;15737;49.760;6.632;2022-12-07T03:06:22;5.60;;;2.17;;
28529;SDS011;15737;49.760;6.632;2022-12-07T03:09:09;5.13;;;3.57;;
28529;SDS011;15737;49.760;6.632;2022-12-07T03:11:45;7.57;;;4.03;;
28529;SDS011;15737;49.760;6.632;2022-12-07T03:14:17;5.03;;;2.43;;
28529;SDS011;15737;49.760;6.632;2022-12-07T03:16:56;14.67;;;5.07;;
28529;SDS011;15737;49.760;6.632;2022-12-07T03:19:28;12.87;;;5.53;;
28529;SDS011;15737;49.760;6.632;2022-12-07T03:22:00;9.90;;;4.93;;
28529;SDS011;15737;49.760;6.632;2022-12-07T03:24:34;11.30;;;5.13;;
28529;SDS011;15737;49.760;6.632;2022-12-07T03:27:12;7.70;;;4.00;;
28529;SDS011;15737;49.760;6.632;2022-12-07T03:29:49;8.17;;;3.73;;
28529;SDS011;15737;49.760;6.632;2022-12-07T03:32:20;9.80;;;4.03;;
28529;SDS011;15737;49.760;6.632;2022-12-07T03:35:08;7.20;;;3.63;;
28529;SDS011;15737;49.760;6.632;2022-12-07T03:37:46;9.27;;;3.53;;
28529;SDS011;15737;49.760;6.632;2022-12-07T03:40:35;7.10;;;4.73;;
28529;SDS011;15737;49.760;6.632;2022-12-07T03:43:14;3.13;;;2.13;;
28529;SDS011;15737;49.760;6.632;2022-12-07T03:45:42;11.47;;;4.27;;
28529;SDS011;15737;49.760;6.632;2022-12-07T03:50:59;6.40;;;3.80;;
28529;SDS011;15737;49.760;6.632;2022-12-07T03:53:36;5.73;;;3.53;;
28529;SDS011;15737;49.760;6.632;2022-12-07T03:56:11;1.73;;;1.50;;
28529;SDS011;15737;49.760;6.632;2022-12-07T03:58:37;7.17;;;4.10;;
28529;SDS011;15737;49.760;6.632;2022-12-07T04:01:03;6.53;;;3.57;;
28529;SDS011;15737;49.760;6.632;2022-12-07T04:03:29;11.03;;;4.70;;
28529;SDS011;15737;49.760;6.632;2022-12-07T04:05:55;8.87;;;4.90;;
28529;SDS011;15737;49.760;6.632;2022-12-07T04:08:20;9.40;;;4.23;;
28529;SDS011;15737;49.760;6.632;2022-12-07T04:10:46;6.77;;;3.00;;
28529;SDS011;15737;49.760;6.632;2022-12-07T04:13:11;8.03;;;4.00;;
28529;SDS011;15737;49.760;6.632;2022-12-07T04:15:37;8.00;;;4.43;;
28529;SDS011;15737;49.760;6.632;2022-12-07T04:18:02;5.23;;;2.80;;
28529;SDS011;15737;49.760;6.632;2022-12-07T04:20:28;6.83;;;3.40;;
28529;SDS011;15737;49.760;6.632;2022-12-07T04:22:54;11.73;;;4.50;;
28529;SDS011;15737;49.760;6.632;2022-12-07T04:25:19;7.00;;;3.33;;
28529;SDS011;15737;49.760;6.632;2022-12-07T04:27:45;7.67;;;4.57;;
28529;SDS011;15737;49.760;6.632;2022-12-07T04:30:10;6.03;;;4.13;;
28529;SDS011;15737;49.760;6.632;2022-12-07T04:32:36;5.07;;;3.20;;
28529;SDS011;15737;49.760;6.632;2022-12-07T04:35:02;11.07;;;4.27;;
28529;SDS011;15737;49.760;6.632;2022-12-07T04:37:28;7.70;;;4.40;;
28529;SDS011;15737;49.760;6.632;2022-12-07T04:39:53;6.17;;;3.20;;
28529;SDS011;15737;49.760;6.632;2022-12-07T04:42:19;11.37;;;6.10;;
28529;SDS011;15737;49.760;6.632;2022-12-07T04:44:44;9.27;;;4.27;;
28529;SDS011;15737;49.760;6.632;2022-12-07T04:47:10;9.60;;;4.57;;
28529;SDS011;15737;49.760;6.632;2022-12-07T04:49:35;8.07;;;4.40;;
28529;SDS011;15737;49.760;6.632;2022-12-07T04:52:01;6.10;;;4.10;;
28529;SDS011;15737;49.760;6.632;2022-12-07T04:54:26;12.97;;;4.93;;
28529;SDS011;15737;49.760;6.632;2022-12-07T04:56:52;11.73;;;5.67;;
28529;SDS011;15737;49.760;6.632;2022-12-07T04:59:17;11.87;;;4.83;;
28529;SDS011;15737;49.760;6.632;2022-12-07T05:01:43;14.83;;;5.70;;
28529;SDS011;15737;49.760;6.632;2022-12-07T05:04:09;10.67;;;5.07;;
28529;SDS011;15737;49.760;6.632;2022-12-07T05:06:34;9.13;;;5.73;;
28529;SDS011;15737;49.760;6.632;2022-12-07T05:09:00;8.60;;;4.80;;
28529;SDS011;15737;49.760;6.632;2022-12-07T05:11:25;12.40;;;5.37;;
28529;SDS011;15737;49.760;6.632;2022-12-07T05:14:04;9.83;;;5.20;;
28529;SDS011;15737;49.760;6.632;2022-12-07T05:16:38;12.50;;;5.47;;
28529;SDS011;15737;49.760;6.632;2022-12-07T05:19:04;6.83;;;4.30;;
28529;SDS011;15737;49.760;6.632;2022-12-07T05:21:30;9.93;;;4.43;;
28529;SDS011;15737;49.760;6.632;2022-12-07T05:23:56;6.57;;;3.80;;
28529;SDS011;15737;49.760;6.632;2022-12-07T05:26:21;7.70;;;3.83;;
28529;SDS011;15737;49.760;6.632;2022-12-07T05:28:51;10.40;;;5.37;;
28529;SDS011;15737;49.760;6.632;2022-12-07T05:31:18;9.30;;;4.30;;
28529;SDS011;15737;49.760;6.632;2022-12-07T05:33:44;7.57;;;4.80;;
28529;SDS011;15737;49.760;6.632;2022-12-07T05:36:09;12.87;;;5.30;;
28529;SDS011;15737;49.760;6.632;2022-12-07T05:38:35;7.63;;;4.83;;
28529;SDS011;15737;49.760;6.632;2022-12-07T05:41:01;12.10;;;5.80;;
28529;SDS011;15737;49.760;6.632;2022-12-07T05:43:28;9.90;;;4.57;;
28529;SDS011;15737;49.760;6.632;2022-12-07T05:45:54;11.17;;;5.43;;
28529;SDS011;15737;49.760;6.632;2022-12-07T05:48:20;12.77;;;5.57;;
28529;SDS011;15737;49.760;6.632;2022-12-07T05:50:49;9.10;;;4.00;;
28529;SDS011;15737;49.760;6.632;2022-12-07T05:53:15;15.73;;;5.97;;
28529;SDS011;15737;49.760;6.632;2022-12-07T05:55:41;8.03;;;4.53;;
28529;SDS011;15737;49.760;6.632;2022-12-07T05:58:07;9.90;;;5.60;;
28529;SDS011;15737;49.760;6.632;2022-12-07T06:00:51;9.90;;;5.37;;
28529;SDS011;15737;49.760;6.632;2022-12-07T06:03:19;12.30;;;6.30;;
28529;SDS011;15737;49.760;6.632;2022-12-07T06:05:44;11.83;;;5.57;;
28529;SDS011;15737;49.760;6.632;2022-12-07T06:08:09;9.80;;;5.60;;
28529;SDS011;15737;49.760;6.632;2022-12-07T06:10:35;10.17;;;4.67;;
28529;SDS011;15737;49.760;6.632;2022-12-07T06:13:01;16.17;;;7.27;;
28529;SDS011;15737;49.760;6.632;2022-12-07T06:15:26;10.53;;;5.90;;
28529;SDS011;15737;49.760;6.632;2022-12-07T06:17:52;9.20;;;5.17;;
28529;SDS011;15737;49.760;6.632;2022-12-07T06:20:17;13.03;;;5.03;;
28529;SDS011;15737;49.760;6.632;2022-12-07T06:22:43;9.63;;;5.30;;
28529;SDS011;15737;49.760;6.632;2022-12-07T06:25:08;15.43;;;6.50;;
28529;SDS011;15737;49.760;6.632;2022-12-07T06:27:34;6.87;;;5.07;;
28529;SDS011;15737;49.760;6.632;2022-12-07T06:30:00;5.10;;;3.33;;
28529;SDS011;15737;49.760;6.632;2022-12-07T06:32:31;12.90;;;6.30;;
28529;SDS011;15737;49.760;6.632;2022-12-07T06:34:57;14.10;;;6.80;;
28529;SDS011;15737;49.760;6.632;2022-12-07T06:37:23;10.90;;;5.47;;
28529;SDS011;15737;49.760;6.632;2022-12-07T06:39:48;10.90;;;6.37;;
28529;SDS011;15737;49.760;6.632;2022-12-07T06:42:14;11.33;;;5.63;;
28529;SDS011;15737;49.760;6.632;2022-12-07T06:44:39;17.60;;;6.37;;
28529;SDS011;15737;49.760;6.632;2022-12-07T06:47:05;10.93;;;5.57;;
28529;SDS011;15737;49.760;6.632;2022-12-07T06:49:32;12.00;;;4.37;;
28529;SDS011;15737;49.760;6.632;2022-12-07T06:51:58;7.10;;;3.87;;
28529;SDS011;15737;49.760;6.632;2022-12-07T06:54:24;11.60;;;5.63;;
28529;SDS011;15737;49.760;6.632;2022-12-07T06:56:49;14.73;;;6.20;;
28529;SDS011;15737;49.760;6.632;2022-12-07T06:59:15;12.43;;;5.70;;
28529;SDS011;15737;49.760;6.632;2022-12-07T07:01:40;10.20;;;4.57;;
28529;SDS011;15737;49.760;6.632;2022-12-07T07:04:06;6.50;;;4.37;;
28529;SDS011;15737;49.760;6.632;2022-12-07T07:06:31;9.77;;;4.63;;
28529;SDS011;15737;49.760;6.632;2022-12-07T07:08:57;12.13;;;5.53;;
28529;SDS011;15737;49.760;6.632;2022-12-07T07:11:23;10.27;;;5.70;;
28529;SDS011;15737;49.760;6.632;2022-12-07T07:13:48;10.10;;;5.03;;
28529;SDS011;15737;49.760;6.632;2022-12-07T07:16:14;13.43;;;5.50;;
28529;SDS011;15737;49.760;6.632;2022-12-07T07:18:40;10.37;;;6.37;;
28529;SDS011;15737;49.760;6.632;2022-12-07T07:21:05;10.23;;;4.77;;
28529;SDS011;15737;49.760;6.632;2022-12-07T07:23:31;7.60;;;4.97;;
28529;SDS011;15737;49.760;6.632;2022-12-07T07:25:56;14.73;;;7.20;;
28529;SDS011;15737;49.760;6.632;2022-12-07T07:28:22;13.53;;;6.33;;
28529;SDS011;15737;49.760;6.632;2022-12-07T07:30:47;9.73;;;4.63;;
28529;SDS011;15737;49.760;6.632;2022-12-07T07:33:13;12.40;;;5.03;;
28529;SDS011;15737;49.760;6.632;2022-12-07T07:35:39;12.20;;;4.20;;
28529;SDS011;15737;49.760;6.632;2022-12-07T07:38:04;14.07;;;4.70;;
28529;SDS011;15737;49.760;6.632;2022-12-07T07:40:30;12.97;;;4.63;;
28529;SDS011;15737;49.760;6.632;2022-12-07T07:42:56;11.73;;;5.30;;
28529;SDS011;15737;49.760;6.632;2022-12-07T07:45:22;10.90;;;5.80;;
28529;SDS011;15737;49.760;6.632;2022-12-07T07:47:49;11.43;;;5.47;;
28529;SDS011;15737;49.760;6.632;2022-12-07T07:50:15;10.93;;;5.80;;
28529;SDS011;15737;49.760;6.632;2022-12-07T07:52:41;9.30;;;4.50;;
28529;SDS011;15737;49.760;6.632;2022-12-07T07:55:07;10.57;;;5.63;;
28529;SDS011;15737;49.760;6.632;2022-12-07T07:57:36;15.80;;;5.07;;
28529;SDS011;15737;49.760;6.632;2022-12-07T08:00:04;13.77;;;4.57;;
28529;SDS011;15737;49.760;6.632;2022-12-07T08:02:33;9.07;;;4.60;;
28529;SDS011;15737;49.760;6.632;2022-12-07T08:04:58;12.00;;;4.77;;
28529;SDS011;15737;49.760;6.632;2022-12-07T08:07:24;10.13;;;5.20;;
28529;SDS011;15737;49.760;6.632;2022-12-07T08:09:49;10.53;;;4.57;;
28529;SDS011;15737;49.760;6.632;2022-12-07T08:12:15;8.60;;;4.00;;
28529;SDS011;15737;49.760;6.632;2022-12-07T08:14:40;13.07;;;5.60;;
28529;SDS011;15737;49.760;6.632;2022-12-07T08:17:06;14.13;;;6.13;;
28529;SDS011;15737;49.760;6.632;2022-12-07T08:19:32;7.20;;;4.13;;
28529;SDS011;15737;49.760;6.632;2022-12-07T08:21:58;8.90;;;4.53;;
28529;SDS011;15737;49.760;6.632;2022-12-07T08:24:23;9.63;;;5.53;;
28529;SDS011;15737;49.760;6.632;2022-12-07T08:26:51;11.20;;;5.37;;
28529;SDS011;15737;49.760;6.632;2022-12-07T08:29:21;8.90;;;5.10;;
28529;SDS011;15737;49.760;6.632;2022-12-07T08:31:47;14.53;;;6.37;;
28529;SDS011;15737;49.760;6.632;2022-12-07T08:34:13;11.47;;;5.63;;
28529;SDS011;15737;49.760;6.632;2022-12-07T08:36:39;15.50;;;6.57;;
28529;SDS011;15737;49.760;6.632;2022-12-07T08:39:05;15.40;;;6.73;;
28529;SDS011;15737;49.760;6.632;2022-12-07T08:41:31;14.90;;;6.53;;
28529;SDS011;15737;49.760;6.632;2022-12-07T08:43:57;15.27;;;5.87;;
28529;SDS011;15737;49.760;6.632;2022-12-07T08:49:14;13.63;;;6.20;;
28529;SDS011;15737;49.760;6.632;2022-12-07T08:51:42;12.17;;;6.03;;
28529;SDS011;15737;49.760;6.632;2022-12-07T08:54:09;12.67;;;5.23;;
28529;SDS011;15737;49.760;6.632;2022-12-07T08:56:37;17.20;;;6.20;;
28529;SDS011;15737;49.760;6.632;2022-12-07T08:59:04;12.03;;;5.60;;
28529;SDS011;15737;49.760;6.632;2022-12-07T09:01:31;10.23;;;5.50;;
28529;SDS011;15737;49.760;6.632;2022-12-07T09:03:57;10.13;;;4.77;;
28529;SDS011;15737;49.760;6.632;2022-12-07T09:06:23;13.37;;;5.77;;
28529;SDS011;15737;49.760;6.632;2022-12-07T09:08:50;10.03;;;5.80;;
28529;SDS011;15737;49.760;6.632;2022-12-07T09:11:18;13.63;;;6.80;;
28529;SDS011;15737;49.760;6.632;2022-12-07T09:13:46;15.60;;;6.60;;
28529;SDS011;15737;49.760;6.632;2022-12-07T09:16:12;18.40;;;6.90;;
28529;SDS011;15737;49.760;6.632;2022-12-07T09:18:37;14.20;;;6.97;;
28529;SDS011;15737;49.760;6.632;2022-12-07T09:21:03;15.00;;;6.00;;
28529;SDS011;15737;49.760;6.632;2022-12-07T09:23:29;18.37;;;7.27;;
28529;SDS011;15737;49.760;6.632;2022-12-07T09:25:55;9.03;;;5.43;;
28529;SDS011;15737;49.760;6.632;2022-12-07T09:28:25;7.93;;;3.63;;
28529;SDS011;15737;49.760;6.632;2022-12-07T09:30:51;7.43;;;3.93;;
28529;SDS011;15737;49.760;6.632;2022-12-07T09:33:16;13.77;;;7.53;;
28529;SDS011;15737;49.760;6.632;2022-12-07T09:35:45;8.17;;;4.53;;
28529;SDS011;15737;49.760;6.632;2022-12-07T09:38:11;9.40;;;5.57;;
28529;SDS011;15737;49.760;6.632;2022-12-07T09:40:37;15.83;;;9.50;;
28529;SDS011;15737;49.760;6.632;2022-12-07T09:43:03;10.10;;;5.83;;
28529;SDS011;15737;49.760;6.632;2022-12-07T09:45:32;8.57;;;4.67;;
28529;SDS011;15737;49.760;6.632;2022-12-07T09:48:00;9.97;;;5.07;;
28529;SDS011;15737;49.760;6.632;2022-12-07T09:50:28;10.33;;;4.20;;
28529;SDS011;15737;49.760;6.632;2022-12-07T09:53:00;11.57;;;6.37;;
28529;SDS011;15737;49.760;6.632;2022-12-07T09:55:39;7.77;;;3.37;;
28529;SDS011;15737;49.760;6.632;2022-12-07T09:58:11;10.73;;;6.47;;
28529;SDS011;15737;49.760;6.632;2022-12-07T10:00:48;8.33;;;5.07;;
28529;SDS011;15737;49.760;6.632;2022-12-07T10:03:15;11.50;;;5.53;;
28529;SDS011;15737;49.760;6.632;2022-12-07T10:05:45;11.40;;;6.13;;
28529;SDS011;15737;49.760;6.632;2022-12-07T10:08:14;6.80;;;4.37;;
28529;SDS011;15737;49.760;6.632;2022-12-07T10:10:42;6.20;;;4.30;;
28529;SDS011;15737;49.760;6.632;2022-12-07T10:13:10;8.70;;;4.77;;
28529;SDS011;15737;49.760;6.632;2022-12-07T10:15:41;10.90;;;5.07;;
28529;SDS011;15737;49.760;6.632;2022-12-07T10:20:59;8.63;;;4.80;;
28529;SDS011;15737;49.760;6.632;2022-12-07T10:23:36;9.03;;;4.30;;
28529;SDS011;15737;49.760;6.632;2022-12-07T10:26:20;7.37;;;3.73;;
28529;SDS011;15737;49.760;6.632;2022-12-07T10:28:50;7.60;;;3.70;;
28529;SDS011;15737;49.760;6.632;2022-12-07T10:31:17;7.43;;;3.87;;
28529;SDS011;15737;49.760;6.632;2022-12-07T10:33:49;10.87;;;4.83;;
28529;SDS011;15737;49.760;6.632;2022-12-07T10:41:28;10.57;;;4.13;;
28529;SDS011;15737;49.760;6.632;2022-12-07T10:43:54;5.63;;;3.37;;
28529;SDS011;15737;49.760;6.632;2022-12-07T10:49:21;5.13;;;3.13;;
28529;SDS011;15737;49.760;6.632;2022-12-07T11:01:06;3.97;;;2.33;;
28529;SDS011;15737;49.760;6.632;2022-12-07T11:06:34;5.13;;;3.10;;
28529;SDS011;15737;49.760;6.632;2022-12-07T11:12:12;4.10;;;2.67;;
28529;SDS011;15737;49.760;6.632;2022-12-07T11:20:43;7.70;;;3.50;;
28529;SDS011;15737;49.760;6.632;2022-12-07T11:28:39;4.77;;;2.57;;
28529;SDS011;15737;49.760;6.632;2022-12-07T11:31:37;6.03;;;3.37;;
28529;SDS011;15737;49.760;6.632;2022-12-07T11:34:31;5.27;;;2.67;;
28529;SDS011;15737;49.760;6.632;2022-12-07T11:37:13;5.70;;;3.17;;
28529;SDS011;15737;49.760;6.632;2022-12-07T11:39:49;7.83;;;2.23;;
28529;SDS011;15737;49.760;6.632;2022-12-07T11:42:21;4.67;;;3.10;;
28529;SDS011;15737;49.760;6.632;2022-12-07T11:44:59;6.87;;;3.40;;
28529;SDS011;15737;49.760;6.632;2022-12-07T11:50:21;5.23;;;2.93;;
28529;SDS011;15737;49.760;6.632;2022-12-07T11:58:29;4.47;;;1.90;;
28529;SDS011;15737;49.760;6.632;2022-12-07T12:04:07;3.80;;;1.70;;
28529;SDS011;15737;49.760;6.632;2022-12-07T12:06:44;6.07;;;2.20;;
28529;SDS011;15737;49.760;6.632;2022-12-07T12:09:27;3.30;;;2.17;;
28529;SDS011;15737;49.760;6.632;2022-12-07T12:12:01;2.67;;;1.97;;
28529;SDS011;15737;49.760;6.632;2022-12-07T12:22:41;4.30;;;2.23;;
28529;SDS011;15737;49.760;6.632;2022-12-07T12:25:24;2.90;;;2.00;;
28529;SDS011;15737;49.760;6.632;2022-12-07T12:27:55;3.80;;;2.10;;
28529;SDS011;15737;49.760;6.632;2022-12-07T12:30:29;2.73;;;2.30;;
28529;SDS011;15737;49.760;6.632;2022-12-07T12:33:04;4.03;;;1.97;;
28529;SDS011;15737;49.760;6.632;2022-12-07T12:49:38;3.90;;;2.10;;
28529;SDS011;15737;49.760;6.632;2022-12-07T12:54:57;4.80;;;1.77;;
28529;SDS011;15737;49.760;6.632;2022-12-07T12:57:26;2.53;;;1.93;;
28529;SDS011;15737;49.760;6.632;2022-12-07T13:02:33;1.80;;;1.53;;
28529;SDS011;15737;49.760;6.632;2022-12-07T13:15:55;2.87;;;1.80;;
28529;SDS011;15737;49.760;6.632;2022-12-07T13:18:40;4.17;;;2.03;;
28529;SDS011;15737;49.760;6.632;2022-12-07T13:23:39;1.00;;;1.00;;
28529;SDS011;15737;49.760;6.632;2022-12-07T13:26:23;3.90;;;1.50;;
28529;SDS011;15737;49.760;6.632;2022-12-07T13:29:18;1.70;;;1.17;;
28529;SDS011;15737;49.760;6.632;2022-12-07T13:31:48;1.03;;;0.60;;
28529;SDS011;15737;49.760;6.632;2022-12-07T13:34:40;1.17;;;0.97;;
28529;SDS011;15737;49.760;6.632;2022-12-07T13:39:56;2.43;;;0.97;;
28529;SDS011;15737;49.760;6.632;2022-12-07T13:44:54;3.47;;;1.60;;
28529;SDS011;15737;49.760;6.632;2022-12-07T13:50:21;3.63;;;1.13;;
28529;SDS011;15737;49.760;6.632;2022-12-07T13:53:00;3.47;;;1.10;;
28529;SDS011;15737;49.760;6.632;2022-12-07T13:55:26;1.43;;;0.93;;
28529;SDS011;15737;49.760;6.632;2022-12-07T13:57:53;0.90;;;0.90;;
28529;SDS011;15737;49.760;6.632;2022-12-07T14:00:23;0.90;;;0.80;;
28529;SDS011;15737;49.760;6.632;2022-12-07T14:05:30;1.20;;;1.10;;
28529;SDS011;15737;49.760;6.632;2022-12-07T14:08:01;2.83;;;1.47;;
28529;SDS011;15737;49.760;6.632;2022-12-07T14:10:38;1.43;;;1.30;;
28529;SDS011;15737;49.760;6.632;2022-12-07T14:16:00;2.30;;;1.50;;
28529;SDS011;15737;49.760;6.632;2022-12-07T14:18:29;3.33;;;1.53;;
28529;SDS011;15737;49.760;6.632;2022-12-07T14:23:36;3.03;;;1.53;;
28529;SDS011;15737;49.760;6.632;2022-12-07T14:26:19;1.93;;;0.90;;
28529;SDS011;15737;49.760;6.632;2022-12-07T14:28:45;2.03;;;1.23;;
28529;SDS011;15737;49.760;6.632;2022-12-07T14:31:18;2.00;;;1.00;;
28529;SDS011;15737;49.760;6.632;2022-12-07T14:33:48;3.03;;;1.07;;
28529;SDS011;15737;49.760;6.632;2022-12-07T14:36:14;2.47;;;1.20;;
28529;SDS011;15737;49.760;6.632;2022-12-07T14:38:40;1.23;;;1.00;;
28529;SDS011;15737;49.760;6.632;2022-12-07T14:41:09;1.33;;;0.70;;
28529;SDS011;15737;49.760;6.632;2022-12-07T14:43:58;2.07;;;0.87;;
28529;SDS011;15737;49.760;6.632;2022-12-07T14:46:24;0.93;;;0.83;;
28529;SDS011;15737;49.760;6.632;2022-12-07T14:48:50;1.70;;;1.10;;
28529;SDS011;15737;49.760;6.632;2022-12-07T14:51:15;1.60;;;1.03;;
28529;SDS011;15737;49.760;6.632;2022-12-07T14:53:42;1.77;;;0.97;;
28529;SDS011;15737;49.760;6.632;2022-12-07T14:56:12;2.87;;;0.70;;
28529;SDS011;15737;49.760;6.632;2022-12-07T14:58:40;1.33;;;0.90;;
28529;SDS011;15737;49.760;6.632;2022-12-07T15:01:06;4.23;;;0.73;;
28529;SDS011;15737;49.760;6.632;2022-12-07T15:03:31;1.17;;;0.93;;
28529;SDS011;15737;49.760;6.632;2022-12-07T15:05:59;3.90;;;0.80;;
28529;SDS011;15737;49.760;6.632;2022-12-07T15:08:24;2.03;;;0.97;;
28529;SDS011;15737;49.760;6.632;2022-12-07T15:10:50;1.30;;;1.10;;
28529;SDS011;15737;49.760;6.632;2022-12-07T15:13:16;1.47;;;1.20;;
28529;SDS011;15737;49.760;6.632;2022-12-07T15:15:45;3.33;;;1.43;;
28529;SDS011;15737;49.760;6.632;2022-12-07T15:18:11;1.10;;;1.00;;
28529;SDS011;15737;49.760;6.632;2022-12-07T15:20:37;2.53;;;1.40;;
28529;SDS011;15737;49.760;6.632;2022-12-07T15:23:03;3.10;;;1.60;;
28529;SDS011;15737;49.760;6.632;2022-12-07T15:25:28;4.60;;;1.73;;
28529;SDS011;15737;49.760;6.632;2022-12-07T15:27:54;1.70;;;1.60;;
28529;SDS011;15737;49.760;6.632;2022-12-07T15:30:19;2.00;;;0.73;;
28529;SDS011;15737;49.760;6.632;2022-12-07T15:32:48;1.70;;;0.97;;
28529;SDS011;15737;49.760;6.632;2022-12-07T15:35:14;1.73;;;1.30;;
28529;SDS011;15737;49.760;6.632;2022-12-07T15:37:40;1.20;;;1.10;;
28529;SDS011;15737;49.760;6.632;2022-12-07T15:40:06;0.87;;;0.87;;
28529;SDS011;15737;49.760;6.632;2022-12-07T15:42:32;4.00;;;1.87;;
28529;SDS011;15737;49.760;6.632;2022-12-07T15:44:57;1.57;;;1.10;;
28529;SDS011;15737;49.760;6.632;2022-12-07T15:47:35;4.50;;;1.83;;
28529;SDS011;15737;49.760;6.632;2022-12-07T15:50:05;1.53;;;1.27;;
28529;SDS011;15737;49.760;6.632;2022-12-07T15:52:33;3.17;;;1.60;;
28529;SDS011;15737;49.760;6.632;2022-12-07T15:54:59;1.60;;;1.20;;
28529;SDS011;15737;49.760;6.632;2022-12-07T15:57:25;1.67;;;1.00;;
28529;SDS011;15737;49.760;6.632;2022-12-07T15:59:51;1.27;;;1.07;;
28529;SDS011;15737;49.760;6.632;2022-12-07T16:02:18;1.80;;;1.40;;
28529;SDS011;15737;49.760;6.632;2022-12-07T16:04:44;4.63;;;1.80;;
28529;SDS011;15737;49.760;6.632;2022-12-07T16:07:10;3.73;;;2.00;;
28529;SDS011;15737;49.760;6.632;2022-12-07T16:09:36;2.93;;;1.20;;
28529;SDS011;15737;49.760;6.632;2022-12-07T16:12:02;1.90;;;1.30;;
28529;SDS011;15737;49.760;6.632;2022-12-07T16:14:28;3.67;;;1.30;;
28529;SDS011;15737;49.760;6.632;2022-12-07T16:16:54;1.80;;;1.27;;
28529;SDS011;15737;49.760;6.632;2022-12-07T16:19:19;6.77;;;1.60;;
28529;SDS011;15737;49.760;6.632;2022-12-07T16:21:46;3.77;;;1.33;;
28529;SDS011;15737;49.760;6.632;2022-12-07T16:24:11;1.30;;;1.20;;
28529;SDS011;15737;49.760;6.632;2022-12-07T16:26:40;6.10;;;1.97;;
28529;SDS011;15737;49.760;6.632;2022-12-07T16:29:05;2.47;;;1.70;;
28529;SDS011;15737;49.760;6.632;2022-12-07T16:31:31;1.40;;;1.30;;
28529;SDS011;15737;49.760;6.632;2022-12-07T16:33:57;6.67;;;1.33;;
28529;SDS011;15737;49.760;6.632;2022-12-07T16:36:23;1.40;;;1.30;;
28529;SDS011;15737;49.760;6.632;2022-12-07T16:38:50;2.43;;;1.73;;
28529;SDS011;15737;49.760;6.632;2022-12-07T16:41:16;6.80;;;1.97;;
28529;SDS011;15737;49.760;6.632;2022-12-07T16:43:41;2.60;;;1.17;;
28529;SDS011;15737;49.760;6.632;2022-12-07T16:46:07;2.03;;;1.27;;
28529;SDS011;15737;49.760;6.632;2022-12-07T16:48:36;3.53;;;1.60;;
28529;SDS011;15737;49.760;6.632;2022-12-07T16:51:06;2.03;;;0.80;;
28529;SDS011;15737;49.760;6.632;2022-12-07T16:53:37;1.43;;;1.17;;
28529;SDS011;15737;49.760;6.632;2022-12-07T16:56:04;3.23;;;1.40;;
28529;SDS011;15737;49.760;6.632;2022-12-07T16:58:34;1.50;;;1.40;;
28529;SDS011;15737;49.760;6.632;2022-12-07T17:00:59;4.57;;;1.73;;
28529;SDS011;15737;49.760;6.632;2022-12-07T17:03:33;1.47;;;1.00;;
28529;SDS011;15737;49.760;6.632;2022-12-07T17:05:58;1.57;;;1.00;;
28529;SDS011;15737;49.760;6.632;2022-12-07T17:08:24;1.50;;;1.13;;